createdAt,value
2016-04-26T00:00:33.125Z,3.74
2016-04-26T00:01:32.972Z,3.66
2016-04-26T00:02:33.161Z,3.53
2016-04-26T00:03:33.195Z,3.5
2016-04-26T00:04:33.214Z,3.45
2016-04-26T00:05:33.236Z,3.25
2016-04-26T00:06:33.270Z,3.11
2016-04-26T00:07:33.273Z,3.19
2016-04-26T00:08:33.337Z,3.26
2016-04-26T00:09:33.356Z,3.23
2016-04-26T00:10:33.359Z,3.32
2016-04-26T00:11:33.392Z,3.19
2016-04-26T00:12:33.426Z,3.18
2016-04-26T00:13:33.461Z,3.21
2016-04-26T00:14:33.495Z,3.21
2016-04-26T00:15:33.497Z,3.16
2016-04-26T00:16:33.578Z,3.13
2016-04-26T00:17:33.550Z,3.04
2016-04-26T00:18:33.584Z,2.98
2016-04-26T00:19:33.602Z,2.95
2016-04-26T00:20:33.636Z,2.93
2016-04-26T00:21:33.653Z,2.98
2016-04-26T00:22:33.688Z,3
2016-04-26T00:23:33.722Z,3.03
2016-04-26T00:24:33.584Z,2.92
2016-04-26T00:25:33.758Z,2.79
2016-04-26T00:26:33.792Z,2.85
2016-04-26T00:27:33.827Z,2.85
2016-04-26T00:28:33.844Z,2.89
2016-04-26T00:29:33.863Z,3.05
2016-04-26T00:30:33.741Z,3.04
2016-04-26T00:31:34.478Z,3.04
2016-04-26T00:32:33.949Z,3.01
2016-04-26T00:33:33.999Z,3.01
2016-04-26T00:34:34.017Z,2.93
2016-04-26T00:35:34.035Z,3.04
2016-04-26T00:36:34.054Z,3.04
2016-04-26T00:37:34.088Z,3.05
2016-04-26T00:38:34.137Z,3.04
2016-04-26T00:39:34.140Z,3.05
2016-04-26T00:40:34.174Z,3
2016-04-26T00:41:34.207Z,2.95
2016-04-26T00:42:34.226Z,2.87
2016-04-26T00:43:34.275Z,2.9
2016-04-26T00:44:34.294Z,3.01
2016-04-26T00:45:34.312Z,2.82
2016-04-26T00:46:34.361Z,2.83
2016-04-26T00:47:34.365Z,2.93
2016-04-26T00:48:34.383Z,3.03
2016-04-26T00:49:34.400Z,3.03
2016-04-26T00:50:34.420Z,2.87
2016-04-26T00:51:34.453Z,3
2016-04-26T00:52:34.487Z,2.9
2016-04-26T00:53:34.522Z,2.97
2016-04-26T00:54:34.539Z,3.04
2016-04-26T00:55:34.574Z,2.83
2016-04-26T00:56:34.591Z,2.9
2016-04-26T00:57:34.610Z,2.93
2016-04-26T00:58:34.628Z,3.01
2016-04-26T00:59:34.678Z,2.85
2016-04-26T01:00:34.727Z,2.85
2016-04-26T01:01:35.230Z,2.8
2016-04-26T01:02:34.607Z,2.87
2016-04-26T01:03:34.767Z,2.86
2016-04-26T01:04:34.802Z,2.77
2016-04-26T01:05:34.866Z,2.89
2016-04-26T01:06:34.729Z,2.85
2016-04-26T01:07:34.902Z,2.69
2016-04-26T01:08:34.921Z,2.74
2016-04-26T01:09:34.954Z,2.68
2016-04-26T01:10:35.005Z,2.8
2016-04-26T01:11:34.992Z,2.77
2016-04-26T01:12:35.009Z,2.82
2016-04-26T01:13:35.044Z,2.54
2016-04-26T01:14:35.078Z,2.61
2016-04-26T01:15:35.096Z,2.71
2016-04-26T01:16:36.021Z,2.56
2016-04-26T01:17:34.883Z,2.49
2016-04-26T01:18:35.229Z,2.56
2016-04-26T01:19:35.217Z,2.68
2016-04-26T01:20:35.234Z,2.5
2016-04-26T01:21:35.252Z,2.49
2016-04-26T01:22:35.287Z,2.6
2016-04-26T01:23:35.305Z,2.51
2016-04-26T01:24:35.339Z,2.44
2016-04-26T01:25:35.358Z,2.5
2016-04-26T01:26:35.375Z,2.49
2016-04-26T01:27:35.410Z,2.49
2016-04-26T01:28:35.428Z,2.42
2016-04-26T01:29:35.462Z,2.28
2016-04-26T01:30:35.511Z,2.33
2016-04-26T01:31:35.561Z,2.51
2016-04-26T01:32:35.563Z,2.46
2016-04-26T01:33:35.582Z,2.35
2016-04-26T01:34:35.600Z,2.36
2016-04-26T01:35:35.603Z,2.35
2016-04-26T01:36:35.699Z,2.36
2016-04-26T01:37:35.684Z,2.2
2016-04-26T01:38:35.702Z,2.31
2016-04-26T01:39:35.721Z,2.32
2016-04-26T01:40:35.755Z,2.31
2016-04-26T01:41:35.773Z,2.33
2016-04-26T01:42:35.790Z,2.35
2016-04-26T01:43:35.826Z,2.36
2016-04-26T01:44:35.843Z,2.33
2016-04-26T01:45:35.893Z,2.38
2016-04-26T01:46:35.895Z,2.43
2016-04-26T01:47:35.930Z,2.43
2016-04-26T01:48:35.964Z,2.46
2016-04-26T01:49:50.156Z,2.49
2016-04-26T01:50:36.015Z,2.39
2016-04-26T01:51:36.050Z,2.33
2016-04-26T01:52:36.052Z,2.46
2016-04-26T01:53:36.087Z,2.32
2016-04-26T01:54:36.105Z,2.35
2016-04-26T01:55:36.138Z,2.14
2016-04-26T01:56:36.157Z,2.25
2016-04-26T01:57:36.191Z,2.29
2016-04-26T01:58:36.224Z,2.2
2016-04-26T01:59:36.244Z,2.22
2016-04-26T02:00:36.261Z,2.28
2016-04-26T02:01:36.249Z,2.35
2016-04-26T02:02:36.220Z,2.33
2016-04-26T02:03:35.613Z,2.28
2016-04-26T02:04:36.366Z,2.35
2016-04-26T02:05:36.400Z,2.39
2016-04-26T02:06:36.449Z,2.24
2016-04-26T02:07:36.469Z,2.2
2016-04-26T02:08:36.486Z,2.22
2016-04-26T02:09:36.520Z,2.22
2016-04-26T02:10:36.539Z,2.13
2016-04-26T02:11:36.557Z,2.22
2016-04-26T02:12:36.574Z,2.13
2016-04-26T02:13:36.609Z,2.2
2016-04-26T02:14:36.627Z,2.22
2016-04-26T02:15:36.676Z,2.24
2016-04-26T02:16:36.539Z,2.32
2016-04-26T02:17:37.917Z,2.26
2016-04-26T02:18:36.748Z,2.18
2016-04-26T02:19:36.781Z,2.06
2016-04-26T02:20:36.768Z,2.11
2016-04-26T02:21:36.803Z,2
2016-04-26T02:22:36.842Z,2.17
2016-04-26T02:23:36.861Z,1.99
2016-04-26T02:24:36.896Z,2.02
2016-04-26T02:25:36.961Z,1.99
2016-04-26T02:26:36.979Z,2.1
2016-04-26T02:27:36.982Z,2.18
2016-04-26T02:28:37.110Z,1.97
2016-04-26T02:29:37.034Z,1.97
2016-04-26T02:30:37.083Z,2.06
2016-04-26T02:31:37.804Z,2.02
2016-04-26T02:32:38.011Z,2.04
2016-04-26T02:33:37.107Z,2.06
2016-04-26T02:34:37.140Z,2.02
2016-04-26T02:35:37.206Z,2.08
2016-04-26T02:36:37.193Z,1.97
2016-04-26T02:37:37.212Z,1.99
2016-04-26T02:38:37.276Z,1.95
2016-04-26T02:39:37.265Z,1.97
2016-04-26T02:40:37.298Z,2.02
2016-04-26T02:41:37.317Z,2.11
2016-04-26T02:42:37.350Z,2.06
2016-04-26T02:43:37.367Z,2.02
2016-04-26T02:44:37.387Z,2.1
2016-04-26T02:45:37.421Z,2.15
2016-04-26T02:46:37.658Z,2.02
2016-04-26T02:47:37.160Z,2.1
2016-04-26T02:48:37.539Z,1.92
2016-04-26T02:49:37.525Z,2.13
2016-04-26T02:50:37.558Z,2.14
2016-04-26T02:51:37.608Z,2.14
2016-04-26T02:52:37.612Z,2.22
2016-04-26T02:53:37.614Z,2.18
2016-04-26T02:54:37.647Z,2.1
2016-04-26T02:55:37.698Z,2.13
2016-04-26T02:56:37.715Z,2.13
2016-04-26T02:57:37.735Z,2.11
2016-04-26T02:58:37.752Z,2.1
2016-04-26T02:59:37.786Z,2.25
2016-04-26T03:00:37.805Z,2.28
2016-04-26T03:01:37.558Z,2.24
2016-04-26T03:02:38.732Z,2.1
2016-04-26T03:03:37.890Z,2.18
2016-04-26T03:04:37.754Z,2.2
2016-04-26T03:05:37.943Z,2.13
2016-04-26T03:06:37.962Z,2.17
2016-04-26T03:07:37.979Z,2.1
2016-04-26T03:08:38.014Z,2.07
2016-04-26T03:09:38.079Z,2.15
2016-04-26T03:10:38.097Z,2.13
2016-04-26T03:11:38.131Z,2.08
2016-04-26T03:12:37.962Z,2
2016-04-26T03:13:38.153Z,2.06
2016-04-26T03:14:38.170Z,2.11
2016-04-26T03:15:38.189Z,2.1
2016-04-26T03:16:38.222Z,2.2
2016-04-26T03:17:38.102Z,2.04
2016-04-26T03:18:38.276Z,2.04
2016-04-26T03:19:38.185Z,2.13
2016-04-26T03:20:38.328Z,2.18
2016-04-26T03:21:38.346Z,1.95
2016-04-26T03:22:38.396Z,2.04
2016-04-26T03:23:38.398Z,2.02
2016-04-26T03:24:38.417Z,2.02
2016-04-26T03:25:38.436Z,2.02
2016-04-26T03:26:38.532Z,2.11
2016-04-26T03:27:38.503Z,2.13
2016-04-26T03:28:38.537Z,2.17
2016-04-26T03:29:38.525Z,2.14
2016-04-26T03:30:38.574Z,2.1
2016-04-26T03:31:39.092Z,2.04
2016-04-26T03:32:38.658Z,2.11
2016-04-26T03:33:38.644Z,2.11
2016-04-26T03:34:38.678Z,2
2016-04-26T03:35:38.697Z,2.15
2016-04-26T03:36:38.746Z,2
2016-04-26T03:37:38.796Z,2.02
2016-04-26T03:38:38.783Z,2
2016-04-26T03:39:38.802Z,2.25
2016-04-26T03:40:38.819Z,1.99
2016-04-26T03:41:38.854Z,1.95
2016-04-26T03:42:38.903Z,1.94
2016-04-26T03:43:38.905Z,1.89
2016-04-26T03:44:38.955Z,1.92
2016-04-26T03:45:38.957Z,1.91
2016-04-26T03:46:39.586Z,2.04
2016-04-26T03:47:39.010Z,2
2016-04-26T03:48:39.043Z,2.06
2016-04-26T03:49:39.047Z,2.06
2016-04-26T03:50:39.065Z,2.13
2016-04-26T03:51:39.115Z,2.02
2016-04-26T03:52:39.134Z,2.02
2016-04-26T03:53:39.182Z,1.88
2016-04-26T03:54:39.248Z,1.95
2016-04-26T03:55:39.203Z,1.97
2016-04-26T03:56:39.284Z,1.95
2016-04-26T03:57:39.318Z,1.88
2016-04-26T03:58:39.336Z,2.07
2016-04-26T03:59:39.324Z,1.99
2016-04-26T04:00:39.326Z,1.92
2016-04-26T04:01:39.360Z,2.04
2016-04-26T04:02:40.036Z,1.99
2016-04-26T04:03:39.428Z,1.89
2016-04-26T04:04:39.430Z,2.02
2016-04-26T04:05:39.512Z,2
2016-04-26T04:06:39.499Z,2
2016-04-26T04:07:39.549Z,1.97
2016-04-26T04:08:39.552Z,2.02
2016-04-26T04:09:53.723Z,2.02
2016-04-26T04:10:39.676Z,2.04
2016-04-26T04:11:39.616Z,2.13
2016-04-26T04:12:39.634Z,2.08
2016-04-26T04:13:39.668Z,2
2016-04-26T04:14:39.687Z,2.22
2016-04-26T04:15:39.736Z,2.17
2016-04-26T04:16:39.848Z,2.31
2016-04-26T04:17:39.867Z,2.26
2016-04-26T04:18:39.790Z,2.25
2016-04-26T04:19:39.825Z,2.17
2016-04-26T04:20:39.843Z,2.22
2016-04-26T04:21:39.861Z,2.07
2016-04-26T04:22:39.911Z,2.11
2016-04-26T04:23:39.914Z,2.13
2016-04-26T04:24:39.948Z,2.11
2016-04-26T04:25:39.966Z,2.08
2016-04-26T04:26:39.984Z,2.22
2016-04-26T04:27:40.019Z,2.13
2016-04-26T04:28:40.052Z,2.14
2016-04-26T04:29:40.086Z,2.25
2016-04-26T04:30:40.104Z,2.51
2016-04-26T04:31:40.139Z,2.51
2016-04-26T04:32:40.173Z,2.39
2016-04-26T04:33:40.175Z,2.44
2016-04-26T04:34:40.225Z,2.29
2016-04-26T04:35:40.227Z,2.35
2016-04-26T04:36:40.246Z,2.46
2016-04-26T04:37:40.279Z,2.43
2016-04-26T04:38:40.298Z,2.38
2016-04-26T04:39:40.316Z,2.57
2016-04-26T04:40:40.366Z,2.54
2016-04-26T04:41:40.399Z,2.67
2016-04-26T04:42:40.418Z,2.53
2016-04-26T04:43:40.437Z,2.64
2016-04-26T04:44:40.470Z,2.67
2016-04-26T04:45:40.473Z,2.68
2016-04-26T04:46:40.491Z,2.56
2016-04-26T04:47:40.650Z,2.53
2016-04-26T04:48:40.543Z,2.57
2016-04-26T04:49:40.562Z,2.6
2016-04-26T04:50:40.611Z,2.57
2016-04-26T04:51:40.629Z,2.56
2016-04-26T04:52:40.664Z,2.62
2016-04-26T04:53:40.728Z,2.72
2016-04-26T04:54:40.731Z,2.67
2016-04-26T04:55:40.734Z,2.83
2016-04-26T04:56:40.596Z,2.97
2016-04-26T04:57:40.786Z,2.86
2016-04-26T04:58:40.836Z,2.87
2016-04-26T04:59:40.839Z,2.82
2016-04-26T05:00:40.888Z,2.92
2016-04-26T05:01:40.891Z,3.01
2016-04-26T05:02:40.941Z,3.05
2016-04-26T05:03:40.974Z,3.05
2016-04-26T05:04:40.993Z,3.07
2016-04-26T05:05:41.011Z,3.22
2016-04-26T05:06:41.029Z,3.32
2016-04-26T05:07:41.111Z,3.42
2016-04-26T05:08:41.128Z,3.26
2016-04-26T05:09:41.100Z,3.29
2016-04-26T05:10:41.119Z,3.4
2016-04-26T05:11:41.152Z,3.42
2016-04-26T05:12:41.202Z,3.34
2016-04-26T05:13:41.220Z,3.31
2016-04-26T05:14:41.238Z,3.29
2016-04-26T05:15:41.257Z,3.32
2016-04-26T05:16:41.400Z,3.5
2016-04-26T05:17:40.996Z,3.37
2016-04-26T05:18:41.373Z,3.4
2016-04-26T05:19:41.393Z,3.45
2016-04-26T05:20:41.396Z,3.36
2016-04-26T05:21:41.429Z,3.41
2016-04-26T05:22:41.448Z,3.4
2016-04-26T05:23:41.512Z,3.28
2016-04-26T05:24:41.500Z,3.28
2016-04-26T05:25:41.550Z,3.32
2016-04-26T05:26:41.552Z,3.26
2016-04-26T05:27:41.586Z,3.41
2016-04-26T05:28:41.620Z,3.16
2016-04-26T05:29:41.639Z,3.11
2016-04-26T05:30:41.672Z,3.23
2016-04-26T05:31:41.691Z,3.18
2016-04-26T05:32:41.725Z,3.23
2016-04-26T05:33:41.742Z,3.18
2016-04-26T05:34:41.761Z,3.18
2016-04-26T05:35:41.795Z,3.31
2016-04-26T05:36:41.813Z,3.4
2016-04-26T05:37:41.832Z,3.31
2016-04-26T05:38:41.865Z,3.37
2016-04-26T05:39:41.899Z,3.5
2016-04-26T05:40:41.933Z,3.6
2016-04-26T05:41:41.967Z,3.69
2016-04-26T05:42:41.985Z,3.74
2016-04-26T05:43:42.004Z,3.69
2016-04-26T05:44:42.038Z,3.76
2016-04-26T05:45:42.056Z,3.74
2016-04-26T05:46:42.090Z,3.68
2016-04-26T05:47:42.748Z,3.68
2016-04-26T05:48:42.157Z,3.68
2016-04-26T05:49:42.379Z,3.69
2016-04-26T05:50:42.195Z,3.7
2016-04-26T05:51:42.260Z,3.62
2016-04-26T05:52:42.262Z,3.7
2016-04-26T05:53:42.265Z,3.69
2016-04-26T05:54:42.284Z,3.68
2016-04-26T05:55:42.317Z,3.65
2016-04-26T05:56:42.340Z,3.7
2016-04-26T05:57:42.514Z,3.69
2016-04-26T05:58:42.459Z,3.86
2016-04-26T05:59:42.259Z,3.83
2016-04-26T06:00:42.621Z,3.7
2016-04-26T06:01:42.664Z,3.77
2016-04-26T06:02:42.777Z,3.74
2016-04-26T06:03:42.544Z,3.73
2016-04-26T06:04:42.547Z,3.86
2016-04-26T06:05:41.723Z,3.81
2016-04-26T06:06:42.631Z,3.83
2016-04-26T06:07:42.650Z,3.92
2016-04-26T06:08:42.668Z,4.01
2016-04-26T06:09:42.686Z,4.16
2016-04-26T06:10:42.719Z,4.32
2016-04-26T06:11:42.769Z,4.44
2016-04-26T06:12:43.069Z,4.5
2016-04-26T06:13:42.806Z,4.45
2016-04-26T06:14:42.902Z,4.6
2016-04-26T06:15:42.858Z,4.55
2016-04-26T06:16:42.893Z,4.42
2016-04-26T06:17:43.802Z,4.38
2016-04-26T06:18:42.929Z,4.45
2016-04-26T06:19:42.994Z,4.52
2016-04-26T06:20:43.028Z,4.55
2016-04-26T06:21:43.031Z,4.55
2016-04-26T06:22:43.068Z,4.45
2016-04-26T06:23:43.086Z,4.49
2016-04-26T06:24:43.168Z,4.45
2016-04-26T06:25:43.170Z,4.5
2016-04-26T06:26:43.173Z,4.31
2016-04-26T06:27:43.237Z,4.4
2016-04-26T06:28:43.209Z,4.17
2016-04-26T06:29:43.259Z,4.22
2016-04-26T06:30:43.262Z,4.13
2016-04-26T06:31:43.327Z,4.04
2016-04-26T06:32:43.345Z,4.01
2016-04-26T06:33:43.363Z,3.99
2016-04-26T06:34:43.475Z,3.83
2016-04-26T06:35:43.431Z,3.7
2016-04-26T06:36:43.434Z,3.73
2016-04-26T06:37:43.483Z,3.76
2016-04-26T06:38:43.501Z,3.68
2016-04-26T06:39:43.535Z,3.6
2016-04-26T06:40:43.554Z,3.47
2016-04-26T06:41:43.603Z,3.47
2016-04-26T06:42:43.605Z,3.42
2016-04-26T06:43:43.625Z,3.47
2016-04-26T06:44:43.736Z,3.41
2016-04-26T06:45:43.677Z,3.45
2016-04-26T06:46:43.742Z,3.58
2016-04-26T06:47:45.541Z,3.59
2016-04-26T06:48:43.794Z,3.65
2016-04-26T06:49:43.874Z,3.81
2016-04-26T06:50:43.815Z,3.98
2016-04-26T06:51:43.880Z,4.06
2016-04-26T06:52:43.867Z,4.31
2016-04-26T06:53:43.932Z,4.38
2016-04-26T06:54:43.919Z,4.26
2016-04-26T06:55:43.969Z,4.24
2016-04-26T06:56:44.034Z,4.17
2016-04-26T06:57:44.006Z,4.1
2016-04-26T06:58:44.086Z,3.95
2016-04-26T06:59:44.073Z,3.92
2016-04-26T07:00:44.076Z,3.83
2016-04-26T07:01:44.141Z,3.86
2016-04-26T07:02:44.159Z,3.73
2016-04-26T07:03:44.162Z,3.81
2016-04-26T07:04:44.228Z,3.7
2016-04-26T07:05:44.246Z,3.69
2016-04-26T07:06:44.296Z,3.65
2016-04-26T07:07:44.298Z,3.47
2016-04-26T07:08:44.317Z,3.28
2016-04-26T07:09:44.351Z,3.18
2016-04-26T07:10:44.384Z,3.1
2016-04-26T07:11:44.387Z,3.01
2016-04-26T07:12:44.483Z,3.1
2016-04-26T07:13:44.439Z,2.83
2016-04-26T07:14:44.536Z,2.93
2016-04-26T07:15:44.492Z,2.85
2016-04-26T07:16:44.525Z,2.87
2016-04-26T07:17:45.138Z,2.93
2016-04-26T07:18:44.594Z,3
2016-04-26T07:19:44.597Z,3
2016-04-26T07:20:44.630Z,3.05
2016-04-26T07:21:44.711Z,3.13
2016-04-26T07:22:44.562Z,3.23
2016-04-26T07:23:44.705Z,3.4
2016-04-26T07:24:44.739Z,3.37
2016-04-26T07:25:44.789Z,3.45
2016-04-26T07:26:44.792Z,3.51
2016-04-26T07:27:44.810Z,3.53
2016-04-26T07:28:44.860Z,3.62
2016-04-26T07:29:44.893Z,3.63
2016-04-26T07:30:44.896Z,3.65
2016-04-26T07:31:44.930Z,3.76
2016-04-26T07:32:44.792Z,3.63
2016-04-26T07:33:44.982Z,3.6
2016-04-26T07:34:45.000Z,3.58
2016-04-26T07:35:45.082Z,3.59
2016-04-26T07:36:45.068Z,3.53
2016-04-26T07:37:45.071Z,3.6
2016-04-26T07:38:45.137Z,3.62
2016-04-26T07:39:45.202Z,3.59
2016-04-26T07:40:45.205Z,3.51
2016-04-26T07:41:45.191Z,3.59
2016-04-26T07:42:46.381Z,3.74
2016-04-26T07:43:45.228Z,3.65
2016-04-26T07:44:45.277Z,3.69
2016-04-26T07:45:45.311Z,3.65
2016-04-26T07:46:45.313Z,3.69
2016-04-26T07:47:46.020Z,3.87
2016-04-26T07:48:45.241Z,3.88
2016-04-26T07:49:45.447Z,3.98
2016-04-26T07:50:45.450Z,3.99
2016-04-26T07:51:45.468Z,4.02
2016-04-26T07:52:45.487Z,3.94
2016-04-26T07:53:45.505Z,4.04
2016-04-26T07:54:45.601Z,3.94
2016-04-26T07:55:45.557Z,3.99
2016-04-26T07:56:45.606Z,3.91
2016-04-26T07:57:45.626Z,3.94
2016-04-26T07:58:45.644Z,3.78
2016-04-26T07:59:45.677Z,3.77
2016-04-26T08:00:45.712Z,3.84
2016-04-26T08:01:45.729Z,3.87
2016-04-26T08:02:45.856Z,3.92
2016-04-26T08:03:45.626Z,3.8
2016-04-26T08:04:45.800Z,3.81
2016-04-26T08:05:45.834Z,3.78
2016-04-26T08:06:45.867Z,3.86
2016-04-26T08:07:45.948Z,3.92
2016-04-26T08:08:45.920Z,3.88
2016-04-26T08:09:45.954Z,3.99
2016-04-26T08:10:45.973Z,4.05
2016-04-26T08:11:46.022Z,3.98
2016-04-26T08:12:46.025Z,3.94
2016-04-26T08:13:46.059Z,4.05
2016-04-26T08:14:46.092Z,4.48
2016-04-26T08:15:46.111Z,4.82
2016-04-26T08:16:46.144Z,5
2016-04-26T08:17:46.179Z,5.1
2016-04-26T08:18:46.057Z,5.02
2016-04-26T08:19:46.216Z,4.84
2016-04-26T08:20:46.344Z,4.78
2016-04-26T08:21:46.283Z,4.74
2016-04-26T08:22:46.364Z,4.82
2016-04-26T08:23:46.352Z,4.7
2016-04-26T08:24:46.369Z,4.63
2016-04-26T08:25:46.372Z,4.49
2016-04-26T08:26:46.406Z,4.44
2016-04-26T08:27:46.440Z,4.59
2016-04-26T08:28:46.465Z,4.59
2016-04-26T08:29:46.483Z,4.5
2016-04-26T08:30:46.520Z,4.49
2016-04-26T08:31:46.611Z,4.58
2016-04-26T08:32:46.422Z,4.74
2016-04-26T08:33:47.466Z,4.71
2016-04-26T08:34:46.823Z,4.75
2016-04-26T08:35:46.866Z,4.8
2016-04-26T08:36:46.930Z,4.67
2016-04-26T08:37:47.011Z,4.8
2016-04-26T08:38:46.997Z,4.82
2016-04-26T08:39:47.062Z,5
2016-04-26T08:40:47.094Z,5.43
2016-04-26T08:41:47.134Z,5.94
2016-04-26T08:42:47.173Z,6.48
2016-04-26T08:43:47.180Z,6.69
2016-04-26T08:44:47.236Z,6.89
2016-04-26T08:45:47.244Z,6.72
2016-04-26T08:46:47.280Z,6.75
2016-04-26T08:47:47.799Z,6.7
2016-04-26T08:48:49.132Z,6.52
2016-04-26T08:49:47.372Z,6.22
2016-04-26T08:50:47.455Z,6.22
2016-04-26T08:51:47.442Z,5.89
2016-04-26T08:52:47.492Z,5.97
2016-04-26T08:53:47.574Z,6.19
2016-04-26T08:54:47.578Z,6.07
2016-04-26T08:55:47.566Z,5.83
2016-04-26T08:56:47.615Z,5.75
2016-04-26T08:57:47.634Z,5.87
2016-04-26T08:58:47.497Z,5.66
2016-04-26T08:59:47.860Z,5.65
2016-04-26T09:00:47.752Z,5.71
2016-04-26T09:01:47.834Z,5.72
2016-04-26T09:02:48.195Z,5.8
2016-04-26T09:03:47.543Z,5.68
2016-04-26T09:04:47.826Z,5.75
2016-04-26T09:05:47.875Z,5.71
2016-04-26T09:06:47.910Z,5.68
2016-04-26T09:07:47.943Z,5.73
2016-04-26T09:08:47.978Z,5.75
2016-04-26T09:09:47.980Z,5.98
2016-04-26T09:10:48.029Z,6.3
2016-04-26T09:11:48.048Z,6.48
2016-04-26T09:12:48.082Z,6.72
2016-04-26T09:13:47.397Z,7.14
2016-04-26T09:14:48.134Z,7.58
2016-04-26T09:15:48.167Z,7.33
2016-04-26T09:16:48.217Z,6.84
2016-04-26T09:17:48.517Z,6.6
2016-04-26T09:18:48.489Z,6.59
2016-04-26T09:19:48.288Z,6.63
2016-04-26T09:20:48.338Z,7.11
2016-04-26T09:21:48.372Z,7.56
2016-04-26T09:22:48.391Z,7.32
2016-04-26T09:23:48.408Z,7.15
2016-04-26T09:24:48.301Z,6.95
2016-04-26T09:25:48.508Z,7.47
2016-04-26T09:26:48.494Z,7.47
2016-04-26T09:27:48.544Z,7.42
2016-04-26T09:28:48.688Z,7.54
2016-04-26T09:29:48.643Z,7.2
2016-04-26T09:30:48.662Z,7.13
2016-04-26T09:31:48.757Z,7.58
2016-04-26T09:32:49.229Z,8
2016-04-26T09:33:51.951Z,7.98
2016-04-26T09:34:48.751Z,7.87
2016-04-26T09:35:48.800Z,7.88
2016-04-26T09:36:48.913Z,7.6
2016-04-26T09:37:48.931Z,7.54
2016-04-26T09:38:48.901Z,7.63
2016-04-26T09:39:48.920Z,7.58
2016-04-26T09:40:48.970Z,7.45
2016-04-26T09:41:49.004Z,7.25
2016-04-26T09:42:49.037Z,7.02
2016-04-26T09:43:49.025Z,6.82
2016-04-26T09:44:49.059Z,6.7
2016-04-26T09:45:49.077Z,6.75
2016-04-26T09:46:49.251Z,6.59
2016-04-26T09:47:50.175Z,6.54
2016-04-26T09:48:49.100Z,6.51
2016-04-26T09:49:49.244Z,6.56
2016-04-26T09:50:49.403Z,6.56
2016-04-26T09:51:49.297Z,6.44
2016-04-26T09:52:49.330Z,6.39
2016-04-26T09:53:49.364Z,6.35
2016-04-26T09:54:49.398Z,6.33
2016-04-26T09:55:49.417Z,6.16
2016-04-26T09:56:49.449Z,6.17
2016-04-26T09:57:49.530Z,6.24
2016-04-26T09:58:49.518Z,6.17
2016-04-26T09:59:49.552Z,6.24
2016-04-26T10:00:49.743Z,6.27
2016-04-26T10:01:49.604Z,6.19
2016-04-26T10:02:50.044Z,6.19
2016-04-26T10:03:52.251Z,6.09
2016-04-26T10:04:49.674Z,6.14
2016-04-26T10:05:49.693Z,6.02
2016-04-26T10:06:49.743Z,5.9
2016-04-26T10:07:49.824Z,5.93
2016-04-26T10:08:49.810Z,5.94
2016-04-26T10:09:49.923Z,5.87
2016-04-26T10:10:49.878Z,5.72
2016-04-26T10:11:49.929Z,5.82
2016-04-26T10:12:49.993Z,5.71
2016-04-26T10:13:49.965Z,5.8
2016-04-26T10:14:49.983Z,5.71
2016-04-26T10:15:50.001Z,5.68
2016-04-26T10:16:50.035Z,5.73
2016-04-26T10:17:50.070Z,5.8
2016-04-26T10:18:49.931Z,5.86
2016-04-26T10:19:50.122Z,5.87
2016-04-26T10:20:50.187Z,5.87
2016-04-26T10:21:50.158Z,5.93
2016-04-26T10:22:50.254Z,5.94
2016-04-26T10:23:50.242Z,5.99
2016-04-26T10:24:50.261Z,6.02
2016-04-26T10:25:50.371Z,6.14
2016-04-26T10:26:50.406Z,6.12
2016-04-26T10:27:50.347Z,6.08
2016-04-26T10:28:50.396Z,6.04
2016-04-26T10:29:50.430Z,6.09
2016-04-26T10:30:50.432Z,5.99
2016-04-26T10:31:50.452Z,6.08
2016-04-26T10:32:50.485Z,6.19
2016-04-26T10:33:50.925Z,6.31
2016-04-26T10:34:50.538Z,6.41
2016-04-26T10:35:50.696Z,6.57
2016-04-26T10:36:50.651Z,6.62
2016-04-26T10:37:50.639Z,6.77
2016-04-26T10:38:50.703Z,6.56
2016-04-26T10:39:50.769Z,6.49
2016-04-26T10:40:50.912Z,6.46
2016-04-26T10:41:50.009Z,6.42
2016-04-26T10:42:50.776Z,6.45
2016-04-26T10:43:50.795Z,6.38
2016-04-26T10:44:50.861Z,6.24
2016-04-26T10:45:50.926Z,6.2
2016-04-26T10:46:50.881Z,6.2
2016-04-26T10:47:50.931Z,5.9
2016-04-26T10:48:50.981Z,5.65
2016-04-26T10:49:50.967Z,5.3
2016-04-26T10:50:51.018Z,5.12
2016-04-26T10:51:51.051Z,4.87
2016-04-26T10:52:51.069Z,4.77
2016-04-26T10:53:51.103Z,4.75
2016-04-26T10:54:51.153Z,4.75
2016-04-26T10:55:51.155Z,4.87
2016-04-26T10:56:51.190Z,5.11
2016-04-26T10:57:51.224Z,5.79
2016-04-26T10:58:51.227Z,5.75
2016-04-26T10:59:51.276Z,6.26
2016-04-26T11:00:51.372Z,6.69
2016-04-26T11:01:51.313Z,7.57
2016-04-26T11:02:51.363Z,7.98
2016-04-26T11:03:52.444Z,8.51
2016-04-26T11:04:51.415Z,8.92
2016-04-26T11:05:51.510Z,8.46
2016-04-26T11:06:51.483Z,8.08
2016-04-26T11:07:51.532Z,7.9
2016-04-26T11:08:51.582Z,7.57
2016-04-26T11:09:51.600Z,6.97
2016-04-26T11:10:51.712Z,7.36
2016-04-26T11:11:51.668Z,7.43
2016-04-26T11:12:51.701Z,7.13
2016-04-26T11:13:51.752Z,6.97
2016-04-26T11:14:51.738Z,7.15
2016-04-26T11:15:51.773Z,7.57
2016-04-26T11:16:51.868Z,7.8
2016-04-26T11:17:51.903Z,8.3
2016-04-26T11:18:51.562Z,8.49
2016-04-26T11:19:51.939Z,8.6
2016-04-26T11:20:52.004Z,9.08
2016-04-26T11:21:51.242Z,9.32
2016-04-26T11:22:52.041Z,9.23
2016-04-26T11:23:51.294Z,8.92
2016-04-26T11:24:52.078Z,9.16
2016-04-26T11:25:52.112Z,8.19
2016-04-26T11:26:52.114Z,8.33
2016-04-26T11:27:52.227Z,8.81
2016-04-26T11:28:52.276Z,9.23
2016-04-26T11:29:52.311Z,9.11
2016-04-26T11:30:52.406Z,9.22
2016-04-26T11:31:52.316Z,8.88
2016-04-26T11:32:52.411Z,8.55
2016-04-26T11:33:53.414Z,8.18
2016-04-26T11:34:52.449Z,8.27
2016-04-26T11:35:52.530Z,7.87
2016-04-26T11:36:52.501Z,7.61
2016-04-26T11:37:52.565Z,7.83
2016-04-26T11:38:52.647Z,7.73
2016-04-26T11:39:52.665Z,7.61
2016-04-26T11:40:52.652Z,7.63
2016-04-26T11:41:52.749Z,7.76
2016-04-26T11:42:52.829Z,7.75
2016-04-26T11:43:52.894Z,7.79
2016-04-26T11:44:55.803Z,7.93
2016-04-26T11:45:52.822Z,7.67
2016-04-26T11:46:52.887Z,7.98
2016-04-26T11:47:53.015Z,8.51
2016-04-26T11:48:53.034Z,8.36
2016-04-26T11:49:53.020Z,8.53
2016-04-26T11:50:52.976Z,8.92
2016-04-26T11:51:53.041Z,9.03
2016-04-26T11:52:53.044Z,8.94
2016-04-26T11:53:53.078Z,8.87
2016-04-26T11:54:53.128Z,8.67
2016-04-26T11:55:53.162Z,8.67
2016-04-26T11:56:53.242Z,8.69
2016-04-26T11:57:53.228Z,8.33
2016-04-26T11:58:53.247Z,8.3
2016-04-26T11:59:53.328Z,8.67
2016-04-26T12:00:53.315Z,8.67
2016-04-26T12:01:53.536Z,8.28
2016-04-26T12:02:53.446Z,8.09
2016-04-26T12:03:53.699Z,7.97
2016-04-26T12:04:53.513Z,7.77
2016-04-26T12:05:53.563Z,7.88
2016-04-26T12:06:53.707Z,7.5
2016-04-26T12:07:53.569Z,7.35
2016-04-26T12:08:53.618Z,7.2
2016-04-26T12:09:53.668Z,7.25
2016-04-26T12:10:53.732Z,7.2
2016-04-26T12:11:53.799Z,7.13
2016-04-26T12:12:53.723Z,7.07
2016-04-26T12:13:53.771Z,6.89
2016-04-26T12:14:53.790Z,6.81
2016-04-26T12:15:53.965Z,6.82
2016-04-26T12:16:53.873Z,6.72
2016-04-26T12:17:53.971Z,6.38
2016-04-26T12:18:54.160Z,6.2
2016-04-26T12:19:54.023Z,5.99
2016-04-26T12:20:54.103Z,5.93
2016-04-26T12:21:54.043Z,6.09
2016-04-26T12:22:54.155Z,6.31
2016-04-26T12:23:54.111Z,6.46
2016-04-26T12:24:54.192Z,6.57
2016-04-26T12:25:54.211Z,6.64
2016-04-26T12:26:54.166Z,6.72
2016-04-26T12:27:54.216Z,6.88
2016-04-26T12:28:54.234Z,7.14
2016-04-26T12:29:54.347Z,7.14
2016-04-26T12:30:54.349Z,6.92
2016-04-26T12:31:54.399Z,6.99
2016-04-26T12:32:54.355Z,7.2
2016-04-26T12:33:54.138Z,7.57
2016-04-26T12:34:54.516Z,7.9
2016-04-26T12:35:54.455Z,7.66
2016-04-26T12:36:54.491Z,7.66
2016-04-26T12:37:54.524Z,7.6
2016-04-26T12:38:54.605Z,7.79
2016-04-26T12:39:54.592Z,7.98
2016-04-26T12:40:54.626Z,7.73
2016-04-26T12:41:54.676Z,7.47
2016-04-26T12:42:54.694Z,7.36
2016-04-26T12:43:54.728Z,7.43
2016-04-26T12:44:54.793Z,7.75
2016-04-26T12:45:54.826Z,7.75
2016-04-26T12:46:54.861Z,7.63
2016-04-26T12:47:54.849Z,7.97
2016-04-26T12:48:55.148Z,8
2016-04-26T12:49:54.931Z,8.15
2016-04-26T12:50:55.029Z,8.08
2016-04-26T12:51:55.046Z,8.13
2016-04-26T12:52:55.081Z,8.34
2016-04-26T12:53:55.129Z,8.55
2016-04-26T12:54:55.086Z,8.44
2016-04-26T12:55:55.182Z,8.36
2016-04-26T12:56:55.184Z,8.18
2016-04-26T12:57:55.187Z,8.08
2016-04-26T12:58:55.222Z,8.1
2016-04-26T12:59:55.256Z,8.09
2016-04-26T13:00:55.305Z,7.87
2016-04-26T13:01:55.370Z,7.85
2016-04-26T13:02:55.373Z,7.76
2016-04-26T13:03:55.391Z,7.66
2016-04-26T13:04:55.472Z,7.35
2016-04-26T13:05:55.444Z,6.96
2016-04-26T13:06:55.539Z,6.69
2016-04-26T13:07:55.558Z,6.36
2016-04-26T13:08:55.591Z,6.07
2016-04-26T13:09:55.580Z,5.71
2016-04-26T13:10:55.613Z,5.44
2016-04-26T13:11:55.677Z,5.15
2016-04-26T13:12:55.743Z,4.97
2016-04-26T13:13:55.747Z,4.99
2016-04-26T13:14:55.795Z,4.74
2016-04-26T13:15:56.079Z,4.73
2016-04-26T13:16:55.801Z,4.7
2016-04-26T13:17:55.824Z,4.86
2016-04-26T13:18:55.936Z,4.77
2016-04-26T13:19:56.643Z,5.17
2016-04-26T13:20:55.989Z,5.68
2016-04-26T13:21:56.037Z,5.64
2016-04-26T13:22:56.057Z,5.69
2016-04-26T13:23:56.059Z,5.69